sensor_id;sensor_type;location;lat;lon;timestamp;P1;durP1;ratioP1;P2;durP2;ratioP2
78143;SDS011;67394;52.522;13.622;2023-11-21T00:00:29;6.18;;;4.40;;
78143;SDS011;67394;52.522;13.622;2023-11-21T00:02:56;6.03;;;3.60;;
78143;SDS011;67394;52.522;13.622;2023-11-21T00:05:23;5.50;;;2.20;;
78143;SDS011;67394;52.522;13.622;2023-11-21T00:07:49;3.95;;;3.08;;
78143;SDS011;67394;52.522;13.622;2023-11-21T00:10:16;6.90;;;3.05;;
78143;SDS011;67394;52.522;13.622;2023-11-21T00:12:43;9.25;;;2.85;;
78143;SDS011;67394;52.522;13.622;2023-11-21T00:15:10;6.10;;;2.72;;
78143;SDS011;67394;52.522;13.622;2023-11-21T00:20:05;3.55;;;1.80;;
78143;SDS011;67394;52.522;13.622;2023-11-21T00:22:35;4.15;;;2.85;;
78143;SDS011;67394;52.522;13.622;2023-11-21T00:25:02;3.03;;;2.33;;
78143;SDS011;67394;52.522;13.622;2023-11-21T00:27:29;3.80;;;2.97;;
78143;SDS011;67394;52.522;13.622;2023-11-21T00:29:56;12.07;;;4.95;;
78143;SDS011;67394;52.522;13.622;2023-11-21T00:32:23;7.40;;;4.78;;
78143;SDS011;67394;52.522;13.622;2023-11-21T00:34:49;9.38;;;4.95;;
78143;SDS011;67394;52.522;13.622;2023-11-21T00:37:16;6.65;;;3.97;;
78143;SDS011;67394;52.522;13.622;2023-11-21T00:39:42;7.78;;;3.90;;
78143;SDS011;67394;52.522;13.622;2023-11-21T00:42:09;8.73;;;4.28;;
78143;SDS011;67394;52.522;13.622;2023-11-21T00:44:37;10.88;;;4.85;;
78143;SDS011;67394;52.522;13.622;2023-11-21T00:47:05;7.57;;;5.35;;
78143;SDS011;67394;52.522;13.622;2023-11-21T00:49:32;6.88;;;3.65;;
78143;SDS011;67394;52.522;13.622;2023-11-21T00:51:59;7.75;;;3.88;;
78143;SDS011;67394;52.522;13.622;2023-11-21T00:54:26;12.00;;;4.20;;
78143;SDS011;67394;52.522;13.622;2023-11-21T00:56:53;6.80;;;4.18;;
78143;SDS011;67394;52.522;13.622;2023-11-21T00:59:20;8.27;;;4.20;;
78143;SDS011;67394;52.522;13.622;2023-11-21T01:01:47;11.82;;;4.70;;
78143;SDS011;67394;52.522;13.622;2023-11-21T01:04:13;9.90;;;4.63;;
78143;SDS011;67394;52.522;13.622;2023-11-21T01:06:40;10.35;;;4.80;;
78143;SDS011;67394;52.522;13.622;2023-11-21T01:09:07;9.77;;;6.22;;
78143;SDS011;67394;52.522;13.622;2023-11-21T01:11:36;11.27;;;5.38;;
78143;SDS011;67394;52.522;13.622;2023-11-21T01:14:03;9.45;;;6.57;;
78143;SDS011;67394;52.522;13.622;2023-11-21T01:16:32;11.68;;;5.07;;
78143;SDS011;67394;52.522;13.622;2023-11-21T01:18:59;13.32;;;5.13;;
78143;SDS011;67394;52.522;13.622;2023-11-21T01:21:25;6.28;;;4.82;;
78143;SDS011;67394;52.522;13.622;2023-11-21T01:23:52;9.43;;;4.72;;
78143;SDS011;67394;52.522;13.622;2023-11-21T01:26:18;6.90;;;4.75;;
78143;SDS011;67394;52.522;13.622;2023-11-21T01:28:45;5.05;;;3.28;;
78143;SDS011;67394;52.522;13.622;2023-11-21T01:31:11;12.02;;;6.07;;
78143;SDS011;67394;52.522;13.622;2023-11-21T01:33:38;9.90;;;4.63;;
78143;SDS011;67394;52.522;13.622;2023-11-21T01:36:05;4.65;;;4.10;;
78143;SDS011;67394;52.522;13.622;2023-11-21T01:38:32;9.38;;;4.78;;
78143;SDS011;67394;52.522;13.622;2023-11-21T01:40:58;9.82;;;6.30;;
78143;SDS011;67394;52.522;13.622;2023-11-21T01:43:25;10.30;;;4.85;;
78143;SDS011;67394;52.522;13.622;2023-11-21T01:45:51;9.00;;;4.50;;
78143;SDS011;67394;52.522;13.622;2023-11-21T01:48:18;12.82;;;5.55;;
78143;SDS011;67394;52.522;13.622;2023-11-21T01:50:45;15.02;;;7.35;;
78143;SDS011;67394;52.522;13.622;2023-11-21T01:53:12;10.23;;;5.68;;
78143;SDS011;67394;52.522;13.622;2023-11-21T01:55:40;7.15;;;4.95;;
78143;SDS011;67394;52.522;13.622;2023-11-21T01:58:08;9.70;;;3.42;;
78143;SDS011;67394;52.522;13.622;2023-11-21T02:00:35;9.82;;;4.28;;
78143;SDS011;67394;52.522;13.622;2023-11-21T02:03:01;6.32;;;3.75;;
78143;SDS011;67394;52.522;13.622;2023-11-21T02:05:28;11.05;;;4.93;;
78143;SDS011;67394;52.522;13.622;2023-11-21T02:07:55;9.63;;;3.15;;
78143;SDS011;67394;52.522;13.622;2023-11-21T02:10:21;8.77;;;5.07;;
78143;SDS011;67394;52.522;13.622;2023-11-21T02:12:49;12.07;;;3.80;;
78143;SDS011;67394;52.522;13.622;2023-11-21T02:15:16;8.80;;;3.40;;
78143;SDS011;67394;52.522;13.622;2023-11-21T02:17:45;7.35;;;3.58;;
78143;SDS011;67394;52.522;13.622;2023-11-21T02:20:13;6.10;;;3.90;;
78143;SDS011;67394;52.522;13.622;2023-11-21T02:22:41;6.90;;;3.80;;
78143;SDS011;67394;52.522;13.622;2023-11-21T02:25:08;5.70;;;3.33;;
78143;SDS011;67394;52.522;13.622;2023-11-21T02:27:35;5.78;;;3.47;;
78143;SDS011;67394;52.522;13.622;2023-11-21T02:30:01;7.30;;;2.95;;
78143;SDS011;67394;52.522;13.622;2023-11-21T02:32:28;7.47;;;2.92;;
78143;SDS011;67394;52.522;13.622;2023-11-21T02:34:56;4.65;;;2.83;;
78143;SDS011;67394;52.522;13.622;2023-11-21T02:37:22;12.43;;;3.17;;
78143;SDS011;67394;52.522;13.622;2023-11-21T02:39:49;5.28;;;3.20;;
78143;SDS011;67394;52.522;13.622;2023-11-21T02:42:16;5.75;;;2.92;;
78143;SDS011;67394;52.522;13.622;2023-11-21T02:44:42;4.70;;;2.33;;
78143;SDS011;67394;52.522;13.622;2023-11-21T02:47:09;3.42;;;1.63;;
78143;SDS011;67394;52.522;13.622;2023-11-21T02:49:36;5.70;;;2.83;;
78143;SDS011;67394;52.522;13.622;2023-11-21T02:52:02;4.95;;;3.25;;
78143;SDS011;67394;52.522;13.622;2023-11-21T02:54:29;2.97;;;2.10;;
78143;SDS011;67394;52.522;13.622;2023-11-21T02:56:56;7.47;;;3.78;;
78143;SDS011;67394;52.522;13.622;2023-11-21T02:59:23;3.65;;;2.45;;
78143;SDS011;67394;52.522;13.622;2023-11-21T03:01:49;5.70;;;2.65;;
78143;SDS011;67394;52.522;13.622;2023-11-21T03:04:16;3.30;;;1.85;;
78143;SDS011;67394;52.522;13.622;2023-11-21T03:06:44;2.53;;;2.20;;
78143;SDS011;67394;52.522;13.622;2023-11-21T03:09:11;6.15;;;2.80;;
78143;SDS011;67394;52.522;13.622;2023-11-21T03:11:37;3.80;;;3.08;;
78143;SDS011;67394;52.522;13.622;2023-11-21T03:14:04;4.75;;;2.17;;
78143;SDS011;67394;52.522;13.622;2023-11-21T03:16:32;2.80;;;2.20;;
78143;SDS011;67394;52.522;13.622;2023-11-21T03:18:59;3.75;;;3.05;;
78143;SDS011;67394;52.522;13.622;2023-11-21T03:21:25;7.18;;;3.85;;
78143;SDS011;67394;52.522;13.622;2023-11-21T03:23:52;6.45;;;3.33;;
78143;SDS011;67394;52.522;13.622;2023-11-21T03:26:19;5.18;;;2.35;;
78143;SDS011;67394;52.522;13.622;2023-11-21T03:28:45;5.43;;;2.70;;
78143;SDS011;67394;52.522;13.622;2023-11-21T03:31:12;3.58;;;1.95;;
78143;SDS011;67394;52.522;13.622;2023-11-21T03:33:38;3.38;;;2.70;;
78143;SDS011;67394;52.522;13.622;2023-11-21T03:36:05;4.53;;;1.98;;
78143;SDS011;67394;52.522;13.622;2023-11-21T03:38:32;2.63;;;1.70;;
78143;SDS011;67394;52.522;13.622;2023-11-21T03:41:01;3.08;;;1.58;;
78143;SDS011;67394;52.522;13.622;2023-11-21T03:43:27;2.50;;;2.20;;
78143;SDS011;67394;52.522;13.622;2023-11-21T03:45:54;2.42;;;1.55;;
78143;SDS011;67394;52.522;13.622;2023-11-21T03:48:20;1.40;;;1.08;;
78143;SDS011;67394;52.522;13.622;2023-11-21T03:50:47;3.05;;;1.98;;
78143;SDS011;67394;52.522;13.622;2023-11-21T03:53:14;1.55;;;1.08;;
78143;SDS011;67394;52.522;13.622;2023-11-21T03:55:42;2.92;;;1.80;;
78143;SDS011;67394;52.522;13.622;2023-11-21T03:58:10;3.95;;;3.17;;
78143;SDS011;67394;52.522;13.622;2023-11-21T04:00:36;2.17;;;1.48;;
78143;SDS011;67394;52.522;13.622;2023-11-21T04:03:03;2.83;;;2.05;;
78143;SDS011;67394;52.522;13.622;2023-11-21T04:05:30;2.97;;;1.45;;
78143;SDS011;67394;52.522;13.622;2023-11-21T04:07:57;4.32;;;2.25;;
78143;SDS011;67394;52.522;13.622;2023-11-21T04:10:23;2.08;;;1.20;;
78143;SDS011;67394;52.522;13.622;2023-11-21T04:12:51;3.60;;;1.80;;
78143;SDS011;67394;52.522;13.622;2023-11-21T04:15:17;1.80;;;1.17;;
78143;SDS011;67394;52.522;13.622;2023-11-21T04:17:44;1.90;;;1.42;;
78143;SDS011;67394;52.522;13.622;2023-11-21T04:20:11;2.17;;;1.75;;
78143;SDS011;67394;52.522;13.622;2023-11-21T04:22:41;1.92;;;1.50;;
78143;SDS011;67394;52.522;13.622;2023-11-21T04:25:11;2.25;;;1.20;;
78143;SDS011;67394;52.522;13.622;2023-11-21T04:27:40;3.20;;;2.60;;
78143;SDS011;67394;52.522;13.622;2023-11-21T04:30:07;1.35;;;1.23;;
78143;SDS011;67394;52.522;13.622;2023-11-21T04:32:34;3.13;;;1.65;;
78143;SDS011;67394;52.522;13.622;2023-11-21T04:35:01;2.10;;;1.30;;
78143;SDS011;67394;52.522;13.622;2023-11-21T04:37:28;3.50;;;1.63;;
78143;SDS011;67394;52.522;13.622;2023-11-21T04:39:55;2.72;;;1.83;;
78143;SDS011;67394;52.522;13.622;2023-11-21T04:42:21;3.28;;;1.65;;
78143;SDS011;67394;52.522;13.622;2023-11-21T04:44:48;2.72;;;1.67;;
78143;SDS011;67394;52.522;13.622;2023-11-21T04:47:15;4.82;;;2.03;;
78143;SDS011;67394;52.522;13.622;2023-11-21T04:49:42;2.25;;;1.45;;
78143;SDS011;67394;52.522;13.622;2023-11-21T04:52:10;2.45;;;1.27;;
78143;SDS011;67394;52.522;13.622;2023-11-21T04:54:36;3.33;;;2.28;;
78143;SDS011;67394;52.522;13.622;2023-11-21T04:57:03;2.70;;;1.73;;
78143;SDS011;67394;52.522;13.622;2023-11-21T04:59:29;2.15;;;1.38;;
78143;SDS011;67394;52.522;13.622;2023-11-21T05:01:56;4.50;;;2.47;;
78143;SDS011;67394;52.522;13.622;2023-11-21T05:04:23;2.75;;;1.55;;
78143;SDS011;67394;52.522;13.622;2023-11-21T05:06:49;4.07;;;1.35;;
78143;SDS011;67394;52.522;13.622;2023-11-21T05:09:16;5.03;;;1.65;;
78143;SDS011;67394;52.522;13.622;2023-11-21T05:11:45;1.27;;;0.88;;
78143;SDS011;67394;52.522;13.622;2023-11-21T05:14:12;2.15;;;1.33;;
78143;SDS011;67394;52.522;13.622;2023-11-21T05:16:39;1.92;;;1.27;;
78143;SDS011;67394;52.522;13.622;2023-11-21T05:19:06;7.05;;;1.63;;
78143;SDS011;67394;52.522;13.622;2023-11-21T05:21:32;0.90;;;0.68;;
78143;SDS011;67394;52.522;13.622;2023-11-21T05:23:59;2.83;;;1.40;;
78143;SDS011;67394;52.522;13.622;2023-11-21T05:26:25;2.20;;;0.95;;
78143;SDS011;67394;52.522;13.622;2023-11-21T05:28:52;3.20;;;1.30;;
78143;SDS011;67394;52.522;13.622;2023-11-21T05:31:18;2.60;;;1.67;;
78143;SDS011;67394;52.522;13.622;2023-11-21T05:33:45;2.17;;;1.17;;
78143;SDS011;67394;52.522;13.622;2023-11-21T05:36:12;2.90;;;1.77;;
78143;SDS011;67394;52.522;13.622;2023-11-21T05:38:38;4.72;;;2.08;;
78143;SDS011;67394;52.522;13.622;2023-11-21T05:41:05;2.25;;;1.33;;
78143;SDS011;67394;52.522;13.622;2023-11-21T05:43:32;2.05;;;1.33;;
78143;SDS011;67394;52.522;13.622;2023-11-21T05:45:59;1.23;;;1.02;;
78143;SDS011;67394;52.522;13.622;2023-11-21T05:48:26;3.03;;;1.67;;
78143;SDS011;67394;52.522;13.622;2023-11-21T05:50:52;2.88;;;1.02;;
78143;SDS011;67394;52.522;13.622;2023-11-21T05:53:19;2.15;;;1.35;;
78143;SDS011;67394;52.522;13.622;2023-11-21T05:55:45;1.65;;;1.55;;
78143;SDS011;67394;52.522;13.622;2023-11-21T05:58:12;2.63;;;2.03;;
78143;SDS011;67394;52.522;13.622;2023-11-21T06:00:38;3.40;;;1.30;;
78143;SDS011;67394;52.522;13.622;2023-11-21T06:03:05;5.55;;;2.13;;
78143;SDS011;67394;52.522;13.622;2023-11-21T06:05:33;1.83;;;1.52;;
78143;SDS011;67394;52.522;13.622;2023-11-21T06:07:59;20.85;;;10.98;;
78143;SDS011;67394;52.522;13.622;2023-11-21T06:10:26;7.15;;;4.65;;
78143;SDS011;67394;52.522;13.622;2023-11-21T06:15:21;1.38;;;1.02;;
78143;SDS011;67394;52.522;13.622;2023-11-21T06:17:47;1.05;;;0.82;;
78143;SDS011;67394;52.522;13.622;2023-11-21T06:20:14;0.95;;;0.50;;
78143;SDS011;67394;52.522;13.622;2023-11-21T06:22:42;2.22;;;1.25;;
78143;SDS011;67394;52.522;13.622;2023-11-21T06:25:10;3.53;;;1.83;;
78143;SDS011;67394;52.522;13.622;2023-11-21T06:27:38;1.88;;;1.52;;
78143;SDS011;67394;52.522;13.622;2023-11-21T06:30:06;2.03;;;1.52;;
78143;SDS011;67394;52.522;13.622;2023-11-21T06:32:34;2.03;;;1.58;;
78143;SDS011;67394;52.522;13.622;2023-11-21T06:35:00;2.72;;;1.45;;
78143;SDS011;67394;52.522;13.622;2023-11-21T06:37:28;2.85;;;2.13;;
78143;SDS011;67394;52.522;13.622;2023-11-21T06:39:55;2.63;;;1.52;;
78143;SDS011;67394;52.522;13.622;2023-11-21T06:42:25;3.10;;;1.52;;
78143;SDS011;67394;52.522;13.622;2023-11-21T06:47:19;2.10;;;1.45;;
78143;SDS011;67394;52.522;13.622;2023-11-21T06:52:13;1.90;;;1.75;;
78143;SDS011;67394;52.522;13.622;2023-11-21T06:54:40;2.08;;;1.08;;
78143;SDS011;67394;52.522;13.622;2023-11-21T06:57:06;4.18;;;2.17;;
78143;SDS011;67394;52.522;13.622;2023-11-21T06:59:33;2.75;;;1.17;;
78143;SDS011;67394;52.522;13.622;2023-11-21T07:02:00;1.30;;;0.88;;
78143;SDS011;67394;52.522;13.622;2023-11-21T07:04:27;2.35;;;2.08;;
78143;SDS011;67394;52.522;13.622;2023-11-21T07:06:54;3.13;;;1.35;;
78143;SDS011;67394;52.522;13.622;2023-11-21T07:09:20;1.67;;;0.93;;
78143;SDS011;67394;52.522;13.622;2023-11-21T07:11:50;3.50;;;1.58;;
78143;SDS011;67394;52.522;13.622;2023-11-21T07:14:16;2.30;;;2.10;;
78143;SDS011;67394;52.522;13.622;2023-11-21T07:16:43;4.35;;;1.73;;
78143;SDS011;67394;52.522;13.622;2023-11-21T07:19:10;5.57;;;2.35;;
78143;SDS011;67394;52.522;13.622;2023-11-21T07:21:39;2.60;;;2.40;;
78143;SDS011;67394;52.522;13.622;2023-11-21T07:24:07;3.50;;;2.05;;
78143;SDS011;67394;52.522;13.622;2023-11-21T07:26:35;5.13;;;2.65;;
78143;SDS011;67394;52.522;13.622;2023-11-21T07:29:02;2.30;;;2.00;;
78143;SDS011;67394;52.522;13.622;2023-11-21T07:31:29;2.60;;;2.08;;
78143;SDS011;67394;52.522;13.622;2023-11-21T07:36:23;2.53;;;2.33;;
78143;SDS011;67394;52.522;13.622;2023-11-21T07:38:50;3.22;;;1.50;;
78143;SDS011;67394;52.522;13.622;2023-11-21T07:41:18;7.97;;;3.20;;
78143;SDS011;67394;52.522;13.622;2023-11-21T07:43:56;3.67;;;2.08;;
78143;SDS011;67394;52.522;13.622;2023-11-21T07:46:23;5.53;;;2.05;;
78143;SDS011;67394;52.522;13.622;2023-11-21T07:48:51;3.88;;;2.47;;
78143;SDS011;67394;52.522;13.622;2023-11-21T07:51:17;5.18;;;2.38;;
78143;SDS011;67394;52.522;13.622;2023-11-21T07:53:44;3.17;;;1.67;;
78143;SDS011;67394;52.522;13.622;2023-11-21T07:56:11;8.32;;;2.92;;
78143;SDS011;67394;52.522;13.622;2023-11-21T07:58:38;8.25;;;3.03;;
78143;SDS011;67394;52.522;13.622;2023-11-21T08:01:05;6.88;;;2.40;;
78143;SDS011;67394;52.522;13.622;2023-11-21T08:03:31;6.20;;;2.25;;
78143;SDS011;67394;52.522;13.622;2023-11-21T08:05:58;4.63;;;2.50;;
78143;SDS011;67394;52.522;13.622;2023-11-21T08:08:25;8.27;;;1.98;;
78143;SDS011;67394;52.522;13.622;2023-11-21T08:10:52;9.27;;;2.90;;
78143;SDS011;67394;52.522;13.622;2023-11-21T08:13:19;7.07;;;2.67;;
78143;SDS011;67394;52.522;13.622;2023-11-21T08:15:45;6.60;;;3.25;;
78143;SDS011;67394;52.522;13.622;2023-11-21T08:18:13;4.22;;;1.67;;
78143;SDS011;67394;52.522;13.622;2023-11-21T08:20:39;3.58;;;2.33;;
78143;SDS011;67394;52.522;13.622;2023-11-21T08:23:06;1.77;;;1.38;;
78143;SDS011;67394;52.522;13.622;2023-11-21T08:25:35;1.42;;;1.13;;
78143;SDS011;67394;52.522;13.622;2023-11-21T08:28:02;2.25;;;2.05;;
78143;SDS011;67394;52.522;13.622;2023-11-21T08:30:29;1.50;;;1.35;;
78143;SDS011;67394;52.522;13.622;2023-11-21T08:32:56;3.50;;;3.05;;
78143;SDS011;67394;52.522;13.622;2023-11-21T08:35:22;1.52;;;0.80;;
78143;SDS011;67394;52.522;13.622;2023-11-21T08:37:52;4.00;;;2.15;;
78143;SDS011;67394;52.522;13.622;2023-11-21T08:40:19;5.18;;;1.33;;
78143;SDS011;67394;52.522;13.622;2023-11-21T08:42:47;2.17;;;0.88;;
78143;SDS011;67394;52.522;13.622;2023-11-21T08:45:14;3.70;;;1.08;;
78143;SDS011;67394;52.522;13.622;2023-11-21T08:47:41;4.05;;;1.48;;
78143;SDS011;67394;52.522;13.622;2023-11-21T08:50:08;0.57;;;0.57;;
78143;SDS011;67394;52.522;13.622;2023-11-21T08:52:35;4.13;;;1.15;;
78143;SDS011;67394;52.522;13.622;2023-11-21T08:55:02;2.53;;;1.98;;
78143;SDS011;67394;52.522;13.622;2023-11-21T08:57:30;1.98;;;1.27;;
78143;SDS011;67394;52.522;13.622;2023-11-21T08:59:57;1.20;;;0.82;;
78143;SDS011;67394;52.522;13.622;2023-11-21T09:02:27;2.67;;;0.95;;
78143;SDS011;67394;52.522;13.622;2023-11-21T09:04:54;1.98;;;1.55;;
78143;SDS011;67394;52.522;13.622;2023-11-21T09:07:21;1.52;;;0.98;;
78143;SDS011;67394;52.522;13.622;2023-11-21T09:09:48;1.45;;;1.10;;
78143;SDS011;67394;52.522;13.622;2023-11-21T09:12:15;1.77;;;1.30;;
78143;SDS011;67394;52.522;13.622;2023-11-21T09:14:45;1.42;;;1.15;;
78143;SDS011;67394;52.522;13.622;2023-11-21T09:17:11;1.45;;;1.08;;
78143;SDS011;67394;52.522;13.622;2023-11-21T09:19:38;3.13;;;1.90;;
78143;SDS011;67394;52.522;13.622;2023-11-21T09:22:05;2.63;;;1.42;;
78143;SDS011;67394;52.522;13.622;2023-11-21T09:24:32;1.27;;;0.80;;
78143;SDS011;67394;52.522;13.622;2023-11-21T09:27:01;3.17;;;1.35;;
78143;SDS011;67394;52.522;13.622;2023-11-21T09:29:29;0.98;;;0.82;;
78143;SDS011;67394;52.522;13.622;2023-11-21T09:31:55;1.40;;;0.80;;
78143;SDS011;67394;52.522;13.622;2023-11-21T09:34:22;1.08;;;0.98;;
78143;SDS011;67394;52.522;13.622;2023-11-21T09:36:49;1.58;;;0.80;;
78143;SDS011;67394;52.522;13.622;2023-11-21T09:39:16;1.17;;;0.65;;
78143;SDS011;67394;52.522;13.622;2023-11-21T09:41:44;1.38;;;0.95;;
78143;SDS011;67394;52.522;13.622;2023-11-21T09:44:18;0.70;;;0.45;;
78143;SDS011;67394;52.522;13.622;2023-11-21T09:46:47;0.77;;;0.65;;
78143;SDS011;67394;52.522;13.622;2023-11-21T09:49:15;0.73;;;0.57;;
78143;SDS011;67394;52.522;13.622;2023-11-21T09:51:44;3.05;;;1.00;;
78143;SDS011;67394;52.522;13.622;2023-11-21T09:54:13;2.10;;;0.68;;
78143;SDS011;67394;52.522;13.622;2023-11-21T09:56:41;0.68;;;0.43;;
78143;SDS011;67394;52.522;13.622;2023-11-21T09:59:10;1.00;;;0.47;;
78143;SDS011;67394;52.522;13.622;2023-11-21T10:01:40;1.15;;;0.60;;
78143;SDS011;67394;52.522;13.622;2023-11-21T10:04:08;0.40;;;0.40;;
78143;SDS011;67394;52.522;13.622;2023-11-21T10:06:35;0.25;;;0.25;;
78143;SDS011;67394;52.522;13.622;2023-11-21T10:09:02;0.35;;;0.35;;
78143;SDS011;67394;52.522;13.622;2023-11-21T10:11:29;0.85;;;0.73;;
78143;SDS011;67394;52.522;13.622;2023-11-21T10:13:56;0.70;;;0.52;;
78143;SDS011;67394;52.522;13.622;2023-11-21T10:16:27;0.77;;;0.77;;
78143;SDS011;67394;52.522;13.622;2023-11-21T10:18:55;0.82;;;0.82;;
78143;SDS011;67394;52.522;13.622;2023-11-21T10:21:39;1.08;;;0.63;;
78143;SDS011;67394;52.522;13.622;2023-11-21T10:24:06;0.65;;;0.43;;
78143;SDS011;67394;52.522;13.622;2023-11-21T10:26:33;0.63;;;0.63;;
78143;SDS011;67394;52.522;13.622;2023-11-21T10:29:16;0.45;;;0.40;;
78143;SDS011;67394;52.522;13.622;2023-11-21T10:31:42;0.80;;;0.50;;
78143;SDS011;67394;52.522;13.622;2023-11-21T10:34:13;0.52;;;0.50;;
78143;SDS011;67394;52.522;13.622;2023-11-21T10:36:44;0.63;;;0.60;;
78143;SDS011;67394;52.522;13.622;2023-11-21T10:39:17;1.20;;;0.93;;
78143;SDS011;67394;52.522;13.622;2023-11-21T10:41:48;0.68;;;0.68;;
78143;SDS011;67394;52.522;13.622;2023-11-21T10:44:15;1.13;;;0.68;;
78143;SDS011;67394;52.522;13.622;2023-11-21T10:46:42;1.10;;;1.00;;
78143;SDS011;67394;52.522;13.622;2023-11-21T10:49:10;3.78;;;1.25;;
78143;SDS011;67394;52.522;13.622;2023-11-21T10:51:36;0.40;;;0.30;;
78143;SDS011;67394;52.522;13.622;2023-11-21T10:54:09;1.48;;;0.90;;
78143;SDS011;67394;52.522;13.622;2023-11-21T10:56:35;1.23;;;1.13;;
78143;SDS011;67394;52.522;13.622;2023-11-21T10:59:03;3.13;;;1.40;;
78143;SDS011;67394;52.522;13.622;2023-11-21T11:01:30;0.82;;;0.65;;
78143;SDS011;67394;52.522;13.622;2023-11-21T11:03:57;1.02;;;0.95;;
78143;SDS011;67394;52.522;13.622;2023-11-21T11:06:26;1.23;;;1.13;;
78143;SDS011;67394;52.522;13.622;2023-11-21T11:08:54;2.42;;;1.20;;
78143;SDS011;67394;52.522;13.622;2023-11-21T11:13:48;0.90;;;0.65;;
78143;SDS011;67394;52.522;13.622;2023-11-21T11:16:15;1.38;;;0.93;;
78143;SDS011;67394;52.522;13.622;2023-11-21T11:18:42;1.60;;;1.15;;
78143;SDS011;67394;52.522;13.622;2023-11-21T11:21:33;1.63;;;1.05;;
78143;SDS011;67394;52.522;13.622;2023-11-21T11:24:31;1.45;;;1.25;;
78143;SDS011;67394;52.522;13.622;2023-11-21T11:38:17;1.38;;;0.80;;
78143;SDS011;67394;52.522;13.622;2023-11-21T11:40:45;1.15;;;0.70;;
78143;SDS011;67394;52.522;13.622;2023-11-21T11:43:12;1.00;;;0.88;;
78143;SDS011;67394;52.522;13.622;2023-11-21T11:45:39;1.83;;;1.02;;
78143;SDS011;67394;52.522;13.622;2023-11-21T11:50:34;1.10;;;1.00;;
78143;SDS011;67394;52.522;13.622;2023-11-21T11:53:13;1.20;;;0.85;;
78143;SDS011;67394;52.522;13.622;2023-11-21T11:55:41;1.02;;;0.98;;
78143;SDS011;67394;52.522;13.622;2023-11-21T11:58:08;1.20;;;1.10;;
78143;SDS011;67394;52.522;13.622;2023-11-21T12:00:35;1.52;;;0.65;;
78143;SDS011;67394;52.522;13.622;2023-11-21T12:03:02;1.00;;;0.57;;
78143;SDS011;67394;52.522;13.622;2023-11-21T12:05:33;1.27;;;0.75;;
78143;SDS011;67394;52.522;13.622;2023-11-21T12:08:04;1.45;;;0.95;;
78143;SDS011;67394;52.522;13.622;2023-11-21T12:10:33;1.17;;;0.70;;
78143;SDS011;67394;52.522;13.622;2023-11-21T12:13:08;1.92;;;0.88;;
78143;SDS011;67394;52.522;13.622;2023-11-21T12:15:36;2.17;;;1.58;;
78143;SDS011;67394;52.522;13.622;2023-11-21T12:18:04;1.23;;;0.88;;
78143;SDS011;67394;52.522;13.622;2023-11-21T12:20:31;1.63;;;0.88;;
78143;SDS011;67394;52.522;13.622;2023-11-21T12:22:58;1.33;;;1.13;;
78143;SDS011;67394;52.522;13.622;2023-11-21T12:25:26;1.20;;;0.80;;
78143;SDS011;67394;52.522;13.622;2023-11-21T12:27:55;0.98;;;0.93;;
78143;SDS011;67394;52.522;13.622;2023-11-21T12:30:24;1.27;;;1.05;;
78143;SDS011;67394;52.522;13.622;2023-11-21T12:32:53;1.35;;;0.77;;
78143;SDS011;67394;52.522;13.622;2023-11-21T12:35:22;1.35;;;0.93;;
78143;SDS011;67394;52.522;13.622;2023-11-21T12:37:51;1.38;;;1.17;;
78143;SDS011;67394;52.522;13.622;2023-11-21T12:42:44;0.57;;;0.57;;
78143;SDS011;67394;52.522;13.622;2023-11-21T12:47:42;0.47;;;0.40;;
78143;SDS011;67394;52.522;13.622;2023-11-21T12:50:10;1.70;;;1.08;;
78143;SDS011;67394;52.522;13.622;2023-11-21T12:52:37;1.05;;;0.95;;
78143;SDS011;67394;52.522;13.622;2023-11-21T12:55:04;1.08;;;0.80;;
78143;SDS011;67394;52.522;13.622;2023-11-21T12:57:31;1.52;;;1.35;;
78143;SDS011;67394;52.522;13.622;2023-11-21T13:00:00;1.10;;;0.82;;
78143;SDS011;67394;52.522;13.622;2023-11-21T13:02:26;2.63;;;1.25;;
78143;SDS011;67394;52.522;13.622;2023-11-21T13:04:53;2.25;;;1.67;;
78143;SDS011;67394;52.522;13.622;2023-11-21T13:07:20;1.50;;;1.27;;
78143;SDS011;67394;52.522;13.622;2023-11-21T13:09:47;1.13;;;0.80;;
78143;SDS011;67394;52.522;13.622;2023-11-21T13:12:14;1.55;;;1.10;;
78143;SDS011;67394;52.522;13.622;2023-11-21T13:14:40;1.73;;;1.40;;
78143;SDS011;67394;52.522;13.622;2023-11-21T13:17:07;2.05;;;1.33;;
78143;SDS011;67394;52.522;13.622;2023-11-21T13:19:33;1.30;;;0.68;;
78143;SDS011;67394;52.522;13.622;2023-11-21T13:22:00;1.40;;;1.17;;
78143;SDS011;67394;52.522;13.622;2023-11-21T13:24:26;1.33;;;1.00;;
78143;SDS011;67394;52.522;13.622;2023-11-21T13:26:53;1.70;;;1.27;;
78143;SDS011;67394;52.522;13.622;2023-11-21T13:29:19;1.70;;;1.30;;
78143;SDS011;67394;52.522;13.622;2023-11-21T13:31:46;2.13;;;1.20;;
78143;SDS011;67394;52.522;13.622;2023-11-21T13:34:12;3.08;;;1.70;;
78143;SDS011;67394;52.522;13.622;2023-11-21T13:36:41;1.27;;;1.00;;
78143;SDS011;67394;52.522;13.622;2023-11-21T13:39:08;2.10;;;1.35;;
78143;SDS011;67394;52.522;13.622;2023-11-21T13:41:35;2.28;;;0.77;;
78143;SDS011;67394;52.522;13.622;2023-11-21T13:44:02;2.75;;;1.45;;
78143;SDS011;67394;52.522;13.622;2023-11-21T13:46:29;3.00;;;1.23;;
78143;SDS011;67394;52.522;13.622;2023-11-21T13:48:56;2.75;;;1.48;;
78143;SDS011;67394;52.522;13.622;2023-11-21T13:51:23;0.50;;;0.50;;
78143;SDS011;67394;52.522;13.622;2023-11-21T13:53:51;6.72;;;1.58;;
78143;SDS011;67394;52.522;13.622;2023-11-21T13:56:18;3.05;;;1.83;;
78143;SDS011;67394;52.522;13.622;2023-11-21T13:58:45;3.35;;;1.45;;
78143;SDS011;67394;52.522;13.622;2023-11-21T14:01:12;3.40;;;2.10;;
78143;SDS011;67394;52.522;13.622;2023-11-21T14:03:39;3.25;;;1.48;;
78143;SDS011;67394;52.522;13.622;2023-11-21T14:06:08;3.58;;;1.95;;
78143;SDS011;67394;52.522;13.622;2023-11-21T14:08:35;4.07;;;2.15;;
78143;SDS011;67394;52.522;13.622;2023-11-21T14:11:01;2.45;;;1.98;;
78143;SDS011;67394;52.522;13.622;2023-11-21T14:13:28;3.35;;;2.30;;
78143;SDS011;67394;52.522;13.622;2023-11-21T14:15:54;2.75;;;1.65;;
78143;SDS011;67394;52.522;13.622;2023-11-21T14:18:21;2.50;;;2.30;;
78143;SDS011;67394;52.522;13.622;2023-11-21T14:20:47;5.72;;;3.50;;
78143;SDS011;67394;52.522;13.622;2023-11-21T14:23:14;2.92;;;2.03;;
78143;SDS011;67394;52.522;13.622;2023-11-21T14:25:41;5.78;;;3.58;;
78143;SDS011;67394;52.522;13.622;2023-11-21T14:28:07;4.95;;;2.30;;
78143;SDS011;67394;52.522;13.622;2023-11-21T14:30:34;5.10;;;3.47;;
78143;SDS011;67394;52.522;13.622;2023-11-21T14:33:01;8.90;;;4.13;;
78143;SDS011;67394;52.522;13.622;2023-11-21T14:35:30;3.00;;;2.53;;
78143;SDS011;67394;52.522;13.622;2023-11-21T14:37:56;5.18;;;4.35;;
78143;SDS011;67394;52.522;13.622;2023-11-21T14:40:23;6.28;;;3.67;;
78143;SDS011;67394;52.522;13.622;2023-11-21T14:42:50;5.22;;;3.53;;
78143;SDS011;67394;52.522;13.622;2023-11-21T14:45:17;5.45;;;3.50;;
78143;SDS011;67394;52.522;13.622;2023-11-21T14:47:44;7.05;;;4.72;;
78143;SDS011;67394;52.522;13.622;2023-11-21T14:50:11;5.15;;;3.42;;
78143;SDS011;67394;52.522;13.622;2023-11-21T14:52:38;6.22;;;2.47;;
78143;SDS011;67394;52.522;13.622;2023-11-21T14:55:04;5.88;;;2.80;;
78143;SDS011;67394;52.522;13.622;2023-11-21T14:57:32;6.85;;;4.45;;
78143;SDS011;67394;52.522;13.622;2023-11-21T14:59:58;5.97;;;3.10;;
78143;SDS011;67394;52.522;13.622;2023-11-21T15:02:25;6.15;;;3.88;;
78143;SDS011;67394;52.522;13.622;2023-11-21T15:04:52;9.07;;;4.97;;
78143;SDS011;67394;52.522;13.622;2023-11-21T15:07:18;3.55;;;3.25;;